Time;durP1;ratioP1;P1;durP2;ratioP2;P2;SDS_P1;SDS_P2;PMS_P1;PMS_P2;Temp;Humidity;BMP_temperature;BMP_pressure;BME280_temperature;BME280_humidity;BME280_pressure;Samples;Min_cycle;Max_cycle;Signal;HPM_P1;HPM_P2
2023/08/18 00:02:01;;;;;;;4.18;1.20;;;;;;;24.28;66.63;99994.53;4416911;32;33339;-83
2023/08/18 00:04:29;;;;;;;1.58;1.48;;;;;;;24.36;66.34;99996.50;4420641;32;33370;-83
2023/08/18 00:06:56;;;;;;;1.05;1.05;;;;;;;24.34;66.33;99990.38;4408260;32;33052;-83
2023/08/18 00:09:24;;;;;;;0.95;0.85;;;;;;;24.53;65.46;99993.84;4430950;32;31873;-83
2023/08/18 00:11:52;;;;;;;2.20;1.85;;;;;;;24.41;66.02;99994.22;4420536;32;32526;-83
2023/08/18 00:14:19;;;;;;;2.95;1.40;;;;;;;24.48;65.95;99998.00;4422135;32;35065;-83
2023/08/18 00:16:47;;;;;;;1.23;0.95;;;;;;;24.59;65.44;99992.38;4422054;32;32625;-82
2023/08/18 00:19:15;;;;;;;9.65;2.08;;;;;;;24.40;66.63;99996.09;4434573;32;34095;-83
2023/08/18 00:21:43;;;;;;;0.82;0.75;;;;;;;24.44;66.50;99988.50;4419378;32;33528;-83
2023/08/18 00:24:11;;;;;;;2.08;1.05;;;;;;;24.42;66.76;99995.91;4435422;32;34639;-82
2023/08/18 00:26:39;;;;;;;1.98;1.73;;;;;;;24.47;66.61;99983.66;4417331;32;32972;-82
2023/08/18 00:29:07;;;;;;;0.80;0.80;;;;;;;24.35;67.15;99989.38;4431024;32;33299;-82
2023/08/18 00:31:34;;;;;;;1.12;1.05;;;;;;;24.41;67.00;99980.72;4433916;32;34676;-82
2023/08/18 00:34:03;;;;;;;3.05;2.10;;;;;;;24.46;66.98;99981.13;4431810;32;34073;-82
2023/08/18 00:36:31;;;;;;;1.67;1.58;;;;;;;24.46;66.84;99987.38;4406896;32;32831;-82
2023/08/18 00:38:59;;;;;;;3.15;1.12;;;;;;;24.45;66.87;99976.69;4420531;32;33558;-82
2023/08/18 00:41:27;;;;;;;3.67;2.08;;;;;;;24.63;66.26;99979.44;4432791;32;35427;-83
2023/08/18 00:43:55;;;;;;;0.93;0.93;;;;;;;24.49;66.60;99980.81;4429791;32;33984;-83
2023/08/18 00:46:23;;;;;;;4.18;1.42;;;;;;;24.55;66.38;99974.81;4418670;32;33073;-83
2023/08/18 00:48:51;;;;;;;1.42;1.33;;;;;;;24.40;66.92;99971.78;4431979;32;32838;-82
2023/08/18 00:51:20;;;;;;;1.12;1.10;;;;;;;24.39;67.09;99966.53;4431101;32;33995;-83
2023/08/18 00:53:47;;;;;;;3.87;1.27;;;;;;;24.37;67.20;99965.84;4428798;32;33369;-82
2023/08/18 00:56:17;;;;;;;1.17;1.02;;;;;;;24.35;67.24;99967.78;4427622;32;33804;-82
2023/08/18 00:58:45;;;;;;;2.03;1.80;;;;;;;24.37;67.09;99966.69;4428793;32;31827;-82
2023/08/18 01:01:13;;;;;;;4.30;1.98;;;;;;;24.33;67.27;99962.56;4415382;32;32881;-82
2023/08/18 01:03:41;;;;;;;2.30;1.58;;;;;;;24.30;67.26;99968.25;4429711;32;34697;-82
2023/08/18 01:06:08;;;;;;;1.08;0.75;;;;;;;24.39;67.10;99964.66;4419092;32;32923;-82
2023/08/18 01:08:36;;;;;;;1.42;1.33;;;;;;;24.44;66.98;99966.91;4428861;32;33282;-83
2023/08/18 01:11:12;;;;;;;1.90;1.73;;;;;;;24.48;66.69;99966.47;4431467;32;33108;-82
2023/08/18 01:13:52;;;;;;;1.40;1.30;;;;;;;24.47;66.82;99972.03;4429463;32;32834;-83
2023/08/18 01:16:22;;;;;;;1.55;1.00;;;;;;;24.39;66.92;99964.66;4416051;32;33108;-82
2023/08/18 01:18:50;;;;;;;1.87;1.50;;;;;;;24.38;67.00;99967.53;4430730;32;33411;-82
2023/08/18 01:21:21;;;;;;;1.12;1.12;;;;;;;24.46;66.63;99957.69;4418706;32;32150;-82
2023/08/18 01:23:49;;;;;;;0.55;0.55;;;;;;;24.33;67.26;99967.94;4416571;32;34370;-82
2023/08/18 01:26:16;;;;;;;1.65;1.08;;;;;;;24.39;67.04;99970.06;4401553;32;33944;-82
2023/08/18 01:28:44;;;;;;;1.95;1.75;;;;;;;24.63;65.93;99965.94;4416349;32;33598;-82
2023/08/18 01:31:19;;;;;;;2.47;1.45;;;;;;;24.36;66.75;99965.00;4429635;32;33010;-82
2023/08/18 01:33:58;;;;;;;3.70;1.58;;;;;;;24.28;67.31;99965.69;4429329;32;33244;-82
2023/08/18 01:36:30;;;;;;;0.80;0.80;;;;;;;24.32;67.35;99968.09;4416855;32;32904;-82
2023/08/18 01:38:58;;;;;;;1.40;1.30;;;;;;;24.33;66.90;99964.41;4430090;32;33467;-82
2023/08/18 01:41:26;;;;;;;0.75;0.68;;;;;;;24.32;67.07;99958.16;4415521;32;33549;-82
2023/08/18 01:43:53;;;;;;;1.12;1.02;;;;;;;24.30;67.33;99964.69;4428740;32;33343;-82
2023/08/18 01:46:21;;;;;;;1.33;1.10;;;;;;;24.27;67.52;99955.06;4416502;32;34061;-82
2023/08/18 01:48:49;;;;;;;0.93;0.93;;;;;;;24.27;67.54;99957.78;4423982;32;33302;-82
2023/08/18 01:51:17;;;;;;;1.65;1.00;;;;;;;24.29;67.41;99953.06;4410612;32;32120;-82
2023/08/18 01:53:45;;;;;;;0.60;0.60;;;;;;;24.23;67.63;99951.81;4419565;32;33075;-82
2023/08/18 01:56:12;;;;;;;0.62;0.60;;;;;;;24.37;67.29;99949.66;4417045;32;32778;-82
2023/08/18 01:58:41;;;;;;;2.45;0.93;;;;;;;24.51;66.85;99962.63;4429508;32;32491;-82
2023/08/18 02:01:09;;;;;;;2.80;1.45;;;;;;;24.36;67.32;99956.03;4413548;32;33909;-82
2023/08/18 02:03:38;;;;;;;1.27;1.17;;;;;;;24.35;67.48;99959.69;4427627;32;33894;-82
2023/08/18 02:06:06;;;;;;;1.00;1.00;;;;;;;24.43;67.21;99943.62;4415258;32;33953;-83
2023/08/18 02:08:34;;;;;;;2.47;1.05;;;;;;;24.37;67.51;99950.50;4428005;32;33359;-82
2023/08/18 02:11:03;;;;;;;4.28;1.75;;;;;;;24.53;67.06;99942.56;4429941;32;33488;-82
2023/08/18 02:13:31;;;;;;;0.93;0.88;;;;;;;24.54;66.82;99940.69;4416071;32;34767;-82
2023/08/18 02:15:59;;;;;;;1.40;0.93;;;;;;;24.51;67.19;99941.03;4427283;32;33752;-83
2023/08/18 02:18:29;;;;;;;1.45;1.35;;;;;;;24.51;67.11;99957.22;4426750;32;34681;-82
2023/08/18 02:20:58;;;;;;;1.45;1.30;;;;;;;24.50;67.35;99959.06;4426483;32;33752;-82
2023/08/18 02:23:28;;;;;;;7.05;1.08;;;;;;;24.66;66.68;99950.28;4426862;32;34436;-82
2023/08/18 02:26:03;;;;;;;1.35;1.25;;;;;;;24.96;65.71;99956.28;4413547;32;32591;-83
2023/08/18 02:28:32;;;;;;;1.40;1.33;;;;;;;24.95;65.81;99938.38;4400685;32;32438;-83
2023/08/18 02:31:02;;;;;;;1.00;0.93;;;;;;;24.84;66.64;99946.75;4428538;32;32987;-83
2023/08/18 02:33:30;;;;;;;0.37;0.32;;;;;;;24.50;67.86;99944.72;4428813;32;33941;-83
2023/08/18 02:36:01;;;;;;;4.87;1.95;;;;;;;24.37;68.84;99941.56;4414738;32;35272;-83
2023/08/18 02:38:30;;;;;;;3.03;1.77;;;;;;;24.27;69.45;99939.72;4425863;32;32648;-83
2023/08/18 02:40:58;;;;;;;1.52;1.42;;;;;;;24.33;69.43;99943.66;4428279;32;34148;-83
2023/08/18 02:43:25;;;;;;;0.93;0.93;;;;;;;24.36;69.53;99950.63;4413683;32;33861;-83
2023/08/18 02:45:56;;;;;;;2.40;2.03;;;;;;;24.46;69.43;99940.63;4429927;32;33840;-83
2023/08/18 02:48:28;;;;;;;5.35;2.08;;;;;;;24.33;69.37;99953.63;4415255;32;33278;-83
2023/08/18 02:51:09;;;;;;;1.23;1.12;;;;;;;24.33;69.99;99959.00;4426195;32;34718;-83
2023/08/18 02:53:37;;;;;;;1.60;1.02;;;;;;;24.27;70.60;99960.47;4414826;32;34277;-84
2023/08/18 02:56:05;;;;;;;0.80;0.80;;;;;;;24.70;68.34;99950.84;4429386;32;34035;-83
2023/08/18 02:58:33;;;;;;;11.45;1.35;;;;;;;24.40;69.33;99947.50;4427072;32;33459;-83
2023/08/18 03:01:03;;;;;;;1.20;1.00;;;;;;;24.45;69.54;99941.63;4416335;32;33699;-83
2023/08/18 03:03:35;;;;;;;1.12;1.02;;;;;;;24.37;69.99;99950.50;4428275;32;33219;-83
2023/08/18 03:06:07;;;;;;;1.37;1.27;;;;;;;24.24;71.14;99948.13;4429437;32;33897;-83
2023/08/18 03:08:36;;;;;;;3.53;2.30;;;;;;;24.34;70.65;99944.50;4429476;32;32634;-83
2023/08/18 03:11:04;;;;;;;1.60;1.48;;;;;;;24.56;69.72;99944.09;4425327;32;34588;-83
2023/08/18 03:13:33;;;;;;;4.30;0.82;;;;;;;24.47;69.57;99945.03;4427670;32;33995;-83
2023/08/18 03:16:01;;;;;;;6.70;2.05;;;;;;;24.71;68.61;99939.87;4414603;32;33001;-83
2023/08/18 03:18:29;;;;;;;0.80;0.80;;;;;;;24.60;69.02;99944.66;4415193;32;33645;-82
2023/08/18 03:20:59;;;;;;;1.67;1.58;;;;;;;24.47;69.77;99945.03;4425808;32;34604;-82
2023/08/18 03:23:27;;;;;;;0.70;0.65;;;;;;;24.50;69.84;99945.56;4429837;32;33903;-82
2023/08/18 03:26:00;;;;;;;9.77;1.58;;;;;;;24.44;70.12;99939.91;4413741;32;34159;-82
2023/08/18 03:28:30;;;;;;;1.35;1.25;;;;;;;24.40;70.58;99943.91;4427110;32;34399;-82
2023/08/18 03:31:02;;;;;;;1.45;0.90;;;;;;;24.49;70.15;99943.00;4415341;32;32663;-82
2023/08/18 03:33:30;;;;;;;;;;;;;;;24.46;70.36;99951.44;4414568;32;32772;-82
2023/08/18 03:35:58;;;;;;;3.45;1.80;;;;;;;24.51;70.07;99951.81;4427331;32;32822;-82
2023/08/18 03:38:26;;;;;;;1.55;1.45;;;;;;;24.42;70.49;99956.28;4425870;32;33023;-82
2023/08/18 03:40:59;;;;;;;0.90;0.90;;;;;;;24.41;70.51;99957.28;4426988;32;32494;-82
2023/08/18 03:43:28;;;;;;;1.67;0.93;;;;;;;24.42;70.45;99955.44;4390220;32;34075;-83
2023/08/18 03:45:58;;;;;;;1.15;1.05;;;;;;;24.42;70.38;99953.59;4415628;32;32794;-82
2023/08/18 03:48:27;;;;;;;1.73;1.37;;;;;;;24.44;70.32;99956.13;4418346;32;33376;-82
2023/08/18 03:50:56;;;;;;;7.25;3.45;;;;;;;24.52;70.12;99950.81;4427378;32;33926;-82
2023/08/18 03:53:24;;;;;;;1.12;0.85;;;;;;;24.52;69.64;99948.13;4427449;32;32576;-82
2023/08/18 03:55:53;;;;;;;1.65;1.55;;;;;;;24.56;69.42;99957.59;4416142;32;32897;-83
2023/08/18 03:58:20;;;;;;;2.55;1.10;;;;;;;24.47;69.83;99953.13;4429343;32;34005;-83
2023/08/18 04:00:48;;;;;;;1.52;1.42;;;;;;;24.50;69.63;99950.97;4415589;32;34269;-83
2023/08/18 04:03:17;;;;;;;3.65;1.58;;;;;;;24.48;69.67;99950.25;4434693;32;33628;-82
2023/08/18 04:05:45;;;;;;;2.65;1.48;;;;;;;24.47;69.54;99942.31;4432720;32;32742;-83
2023/08/18 04:08:15;;;;;;;4.30;1.85;;;;;;;24.38;69.90;99946.78;4417269;32;34432;-82
2023/08/18 04:10:43;;;;;;;5.32;1.50;;;;;;;24.42;69.65;99947.34;4417814;32;32809;-83
2023/08/18 04:13:11;;;;;;;1.42;1.33;;;;;;;24.43;69.72;99949.88;4429570;32;33444;-83
2023/08/18 04:15:39;;;;;;;0.77;0.75;;;;;;;24.38;70.05;99949.47;4420012;32;32444;-83
2023/08/18 04:18:07;;;;;;;2.85;1.55;;;;;;;24.31;70.72;99944.81;4430244;32;33949;-83
2023/08/18 04:20:35;;;;;;;3.30;2.05;;;;;;;24.38;70.37;99951.34;4415206;32;34811;-82
2023/08/18 04:23:04;;;;;;;1.85;0.80;;;;;;;24.37;70.36;99942.41;4415202;32;32904;-82
2023/08/18 04:25:32;;;;;;;1.65;1.55;;;;;;;24.42;70.16;99948.19;4430904;32;34690;-83
2023/08/18 04:28:00;;;;;;;1.58;1.48;;;;;;;24.45;70.27;99947.00;4432250;32;33376;-83
2023/08/18 04:30:27;;;;;;;2.42;2.05;;;;;;;24.47;70.24;99953.97;4419411;32;32568;-83
2023/08/18 04:32:55;;;;;;;0.90;0.90;;;;;;;24.48;70.28;99957.50;4432960;32;33597;-83
2023/08/18 04:35:23;;;;;;;2.20;1.55;;;;;;;24.56;69.92;99938.72;4418178;32;34679;-83
2023/08/18 04:37:51;;;;;;;1.75;1.55;;;;;;;24.61;70.03;99946.34;4431997;32;33098;-83
2023/08/18 04:40:18;;;;;;;1.08;1.05;;;;;;;24.69;69.89;99941.03;4417974;32;32826;-83
2023/08/18 04:42:49;;;;;;;3.95;1.42;;;;;;;24.68;70.25;99942.88;4426296;32;32347;-83
2023/08/18 04:45:17;;;;;;;1.60;1.17;;;;;;;24.75;70.16;99941.25;4421313;32;33439;-83
2023/08/18 04:47:45;;;;;;;1.10;1.10;;;;;;;24.83;70.14;99943.19;4433170;32;31960;-83
2023/08/18 04:50:14;;;;;;;1.20;1.12;;;;;;;24.88;70.29;99942.72;4409666;32;33419;-82
2023/08/18 04:52:41;;;;;;;2.85;1.80;;;;;;;25.12;69.60;99940.25;4424778;32;33227;-83
2023/08/18 04:55:10;;;;;;;1.65;0.93;;;;;;;25.12;69.78;99945.66;4420288;32;33882;-82
2023/08/18 04:57:38;;;;;;;2.40;1.75;;;;;;;25.16;69.27;99946.19;4432415;32;33428;-83
2023/08/18 05:00:07;;;;;;;4.07;2.08;;;;;;;25.29;69.05;99946.63;4419887;32;34433;-83
2023/08/18 05:02:35;;;;;;;2.42;2.22;;;;;;;25.33;69.06;99952.56;4421349;32;34536;-83
2023/08/18 05:05:03;;;;;;;2.55;1.60;;;;;;;25.34;69.26;99951.53;4418891;32;33600;-83
2023/08/18 05:07:32;;;;;;;1.62;1.52;;;;;;;25.35;69.46;99955.94;4417550;32;32440;-83
2023/08/18 05:10:01;;;;;;;5.47;2.80;;;;;;;25.40;68.99;99954.50;4432730;32;33012;-83
2023/08/18 05:12:28;;;;;;;1.62;1.52;;;;;;;25.46;68.98;99959.25;4416757;32;33377;-83
2023/08/18 05:14:56;;;;;;;1.50;1.40;;;;;;;25.65;68.24;99966.28;4418239;32;33331;-84
2023/08/18 05:17:24;;;;;;;2.65;2.28;;;;;;;25.88;67.29;99963.06;4431074;32;34000;-83
2023/08/18 05:19:52;;;;;;;4.47;1.65;;;;;;;25.79;67.18;99965.72;4405169;32;33105;-83
2023/08/18 05:22:21;;;;;;;0.68;0.68;;;;;;;25.67;67.87;99966.97;4415434;32;33132;-83
2023/08/18 05:24:50;;;;;;;1.75;1.27;;;;;;;25.62;68.50;99966.59;4426615;32;33928;-83
2023/08/18 05:27:18;;;;;;;1.45;1.35;;;;;;;25.75;68.07;99969.75;4400747;32;32046;-83
2023/08/18 05:29:49;;;;;;;2.15;1.55;;;;;;;25.72;66.90;99969.19;4401241;32;33157;-82
2023/08/18 05:32:16;;;;;;;2.35;1.52;;;;;;;25.83;65.98;99976.22;4415841;32;33401;-82
2023/08/18 05:34:44;;;;;;;2.97;1.30;;;;;;;25.86;65.59;99965.06;4414512;32;33552;-83
2023/08/18 05:37:12;;;;;;;1.58;1.12;;;;;;;25.95;64.73;99970.37;4404460;32;32414;-84
2023/08/18 05:39:39;;;;;;;6.28;1.40;;;;;;;25.97;64.03;99968.38;4427622;32;33874;-84
2023/08/18 05:42:07;;;;;;;1.35;1.25;;;;;;;26.17;63.68;99973.53;4415666;32;34348;-83
2023/08/18 05:44:34;;;;;;;1.25;1.00;;;;;;;26.22;61.87;99988.25;4416407;32;33549;-82
2023/08/18 05:47:03;;;;;;;0.80;0.80;;;;;;;26.24;61.22;99979.97;4427544;32;33731;-83
2023/08/18 05:49:31;;;;;;;3.15;2.10;;;;;;;26.60;59.48;99979.78;4427203;32;32792;-83
2023/08/18 05:51:59;;;;;;;1.58;1.48;;;;;;;26.48;60.54;99985.47;4414020;32;32720;-83
2023/08/18 05:54:26;;;;;;;2.35;1.15;;;;;;;26.40;59.94;99995.44;4413923;32;33307;-83
2023/08/18 05:56:54;;;;;;;1.65;1.15;;;;;;;26.55;59.74;99986.53;4429008;32;32568;-83
2023/08/18 05:59:22;;;;;;;1.35;1.25;;;;;;;26.87;57.70;99984.03;4412810;32;34049;-83
2023/08/18 06:01:50;;;;;;;1.17;0.93;;;;;;;26.68;59.50;99986.06;4410684;32;33885;-83
2023/08/18 06:04:18;;;;;;;1.58;0.80;;;;;;;26.58;58.99;99990.75;4413817;32;32871;-83
2023/08/18 06:06:46;;;;;;;1.17;1.12;;;;;;;26.59;59.35;99987.06;4398002;32;33130;-83
2023/08/18 06:09:14;;;;;;;0.95;0.95;;;;;;;26.78;59.25;99975.91;4424929;32;33690;-83
2023/08/18 06:11:42;;;;;;;1.27;1.17;;;;;;;27.04;57.44;99981.19;4422406;32;34016;-83
2023/08/18 06:14:09;;;;;;;0.82;0.82;;;;;;;27.01;56.52;99972.53;4430629;32;33457;-83
2023/08/18 06:16:37;;;;;;;1.67;1.58;;;;;;;27.35;55.30;99974.25;4413428;32;33061;-83
2023/08/18 06:19:05;;;;;;;5.03;2.00;;;;;;;27.64;52.77;99980.00;4414396;32;33101;-82
2023/08/18 06:21:33;;;;;;;2.20;0.93;;;;;;;27.46;53.89;99976.63;4426520;32;33773;-82
2023/08/18 06:24:01;;;;;;;1.25;1.15;;;;;;;27.58;52.42;99969.81;4413833;32;33173;-82
2023/08/18 06:26:29;;;;;;;3.70;1.08;;;;;;;27.59;52.66;99974.22;4426340;32;33042;-83
2023/08/18 06:28:57;;;;;;;1.65;1.02;;;;;;;27.48;53.20;99977.28;4412733;32;34307;-82
2023/08/18 06:31:24;;;;;;;1.65;1.00;;;;;;;27.46;53.44;99972.03;4399137;32;33033;-83
2023/08/18 06:33:52;;;;;;;1.23;1.12;;;;;;;27.40;54.10;99967.31;4400389;32;32539;-82
2023/08/18 06:36:20;;;;;;;7.22;1.08;;;;;;;27.71;52.41;99974.69;4416059;32;32517;-83
2023/08/18 06:38:47;;;;;;;2.35;1.70;;;;;;;27.59;54.30;99968.81;4429737;32;34142;-83
2023/08/18 06:41:16;;;;;;;1.02;0.93;;;;;;;27.80;52.68;99965.56;4425731;32;33705;-83
2023/08/18 06:43:43;;;;;;;0.98;0.88;;;;;;;27.99;52.54;99962.44;4401907;32;33520;-82
2023/08/18 06:46:11;;;;;;;1.40;1.00;;;;;;;27.83;52.37;99967.09;4414020;32;32459;-82
2023/08/18 06:48:39;;;;;;;1.45;1.27;;;;;;;28.06;53.07;99970.75;4425981;32;31665;-82
2023/08/18 06:51:06;;;;;;;1.70;1.40;;;;;;;28.24;53.07;99971.31;4414480;32;32146;-82
2023/08/18 06:53:35;;;;;;;1.23;1.12;;;;;;;28.32;51.78;99979.44;4413392;32;32650;-86
2023/08/18 06:56:03;;;;;;;0.98;0.90;;;;;;;28.43;51.75;99975.50;4431258;32;33130;-86
2023/08/18 06:58:31;;;;;;;2.05;1.92;;;;;;;28.21;52.12;99970.84;4405247;32;32921;-86
2023/08/18 07:00:59;;;;;;;1.05;1.05;;;;;;;28.32;51.28;99979.44;4417305;32;34033;-86
2023/08/18 07:03:27;;;;;;;1.95;1.48;;;;;;;28.12;51.50;99991.75;4399190;32;32380;-86
2023/08/18 07:05:57;;;;;;;0.95;0.68;;;;;;;27.92;52.85;99990.47;4398719;32;32971;-86
2023/08/18 07:08:25;;;;;;;1.05;1.02;;;;;;;27.73;53.04;99986.28;4413530;32;32052;-86
2023/08/18 07:10:53;;;;;;;1.80;1.37;;;;;;;28.10;52.35;99988.34;4430613;32;33964;-87
2023/08/18 07:13:21;;;;;;;3.42;2.30;;;;;;;28.35;52.00;99985.56;4415339;32;33113;-86
2023/08/18 07:15:49;;;;;;;1.12;1.05;;;;;;;28.39;52.12;99987.75;4412380;32;30073;-87
2023/08/18 07:18:18;;;;;;;1.40;1.10;;;;;;;28.19;53.09;99984.56;4411633;32;33166;-87
2023/08/18 07:20:46;;;;;;;1.17;1.08;;;;;;;28.27;52.30;99987.25;4417657;32;32658;-88
2023/08/18 07:23:14;;;;;;;1.08;1.00;;;;;;;28.14;53.71;99995.13;4425318;32;34804;-87
2023/08/18 07:25:42;;;;;;;0.70;0.70;;;;;;;28.32;51.60;99993.00;4411992;32;32538;-88
2023/08/18 07:28:11;;;;;;;5.07;2.50;;;;;;;28.45;51.06;99997.06;4411733;32;33512;-87
2023/08/18 07:30:39;;;;;;;0.80;0.80;;;;;;;28.46;51.41;100004.19;4410711;32;32525;-88
2023/08/18 07:33:07;;;;;;;1.20;1.10;;;;;;;28.31;51.88;100001.34;4399846;32;32603;-88
2023/08/18 07:35:34;;;;;;;1.83;1.35;;;;;;;28.25;51.90;100008.31;4411945;32;32209;-87
2023/08/18 07:38:02;;;;;;;4.20;1.83;;;;;;;27.87;53.16;100007.28;4410815;32;33918;-88
2023/08/18 07:40:30;;;;;;;1.98;1.87;;;;;;;28.26;52.61;100007.28;4426089;32;33565;-87
2023/08/18 07:42:58;;;;;;;6.50;2.33;;;;;;;28.19;51.61;100010.88;4413348;32;30880;-87
2023/08/18 07:45:29;;;;;;;1.52;1.35;;;;;;;28.15;52.66;100013.09;4411324;32;32779;-87
2023/08/18 07:47:57;;;;;;;1.30;1.05;;;;;;;27.94;53.86;100012.84;4414423;32;31614;-88
2023/08/18 07:50:25;;;;;;;0.65;0.65;;;;;;;28.56;51.93;100004.81;4398248;32;33168;-87
2023/08/18 07:52:53;;;;;;;1.33;1.23;;;;;;;28.77;52.68;100018.62;4424079;32;34677;-87
2023/08/18 07:55:22;;;;;;;0.75;0.75;;;;;;;28.86;51.25;100023.97;4427131;32;31016;-86
2023/08/18 07:57:50;;;;;;;1.58;1.30;;;;;;;28.83;51.75;100017.88;4412335;32;33593;-87
2023/08/18 08:00:26;;;;;;;2.50;1.62;;;;;;;28.35;52.10;100027.16;4404871;32;34172;-87
2023/08/18 08:02:54;;;;;;;2.35;2.12;;;;;;;28.41;51.57;100028.31;4424545;32;34520;-87
2023/08/18 08:05:22;;;;;;;2.35;1.48;;;;;;;28.55;51.83;100035.72;4424669;32;33326;-87
2023/08/18 08:07:51;;;;;;;2.87;1.87;;;;;;;27.69;54.41;100042.72;4410754;32;32968;-87
2023/08/18 08:10:19;;;;;;;4.32;1.98;;;;;;;27.71;53.37;100045.25;4424712;32;32705;-88
2023/08/18 08:12:48;;;;;;;2.30;1.27;;;;;;;27.79;53.82;100037.97;4412515;32;32916;-88
2023/08/18 08:15:17;;;;;;;2.05;1.35;;;;;;;28.02;52.88;100046.25;4426694;32;33983;-88
2023/08/18 08:17:46;;;;;;;1.55;1.45;;;;;;;28.30;52.55;100038.50;4414154;32;33382;-87
2023/08/18 08:20:17;;;;;;;1.12;1.12;;;;;;;28.32;52.31;100039.16;4410807;32;32569;-87
2023/08/18 08:22:49;;;;;;;1.70;1.60;;;;;;;28.45;51.86;100048.66;4421529;32;33127;-88
2023/08/18 08:25:18;;;;;;;1.10;1.10;;;;;;;28.33;52.12;100051.72;4413808;32;32359;-88
2023/08/18 08:27:51;;;;;;;3.50;1.75;;;;;;;28.06;53.10;100049.47;4414217;32;33207;-87
2023/08/18 08:30:26;;;;;;;1.23;1.12;;;;;;;28.10;53.57;100053.50;4415088;32;32873;-88
2023/08/18 08:33:04;;;;;;;0.85;0.85;;;;;;;28.00;53.90;100055.56;4423596;32;33489;-88
2023/08/18 08:35:33;;;;;;;3.92;1.15;;;;;;;28.12;54.19;100059.62;4426175;32;32703;-88
2023/08/18 08:38:01;;;;;;;1.98;1.12;;;;;;;28.28;52.64;100058.69;4413069;32;32881;-88
2023/08/18 08:40:30;;;;;;;1.42;1.15;;;;;;;28.71;52.21;100061.94;4413815;32;33290;-87
2023/08/18 08:42:58;;;;;;;0.90;0.90;;;;;;;29.16;51.64;100057.63;4408974;32;33866;-86
2023/08/18 08:45:30;;;;;;;1.08;1.08;;;;;;;29.28;50.53;100050.72;4411965;32;32624;-86
2023/08/18 08:48:00;;;;;;;2.12;1.35;;;;;;;29.00;51.60;100053.97;4411562;32;32522;-86
2023/08/18 08:50:29;;;;;;;2.90;1.77;;;;;;;29.14;50.80;100054.22;4425548;32;34222;-86
2023/08/18 08:53:01;;;;;;;13.30;2.22;;;;;;;29.58;49.90;100041.69;4413550;32;34710;-87
2023/08/18 08:55:32;;;;;;;1.30;1.20;;;;;;;29.79;48.79;100045.56;4415793;32;33423;-86
2023/08/18 08:58:01;;;;;;;0.95;0.95;;;;;;;29.57;49.27;100050.00;4412611;32;34386;-86
2023/08/18 09:00:29;;;;;;;14.60;1.58;;;;;;;29.80;49.21;100039.06;4405595;32;31584;-87
2023/08/18 09:03:04;;;;;;;1.50;1.40;;;;;;;29.79;49.50;100032.78;4414691;32;32776;-86
2023/08/18 09:05:32;;;;;;;1.92;1.77;;;;;;;30.06;47.73;100027.75;4413346;32;32047;-87
2023/08/18 09:08:00;;;;;;;2.70;2.10;;;;;;;30.09;48.45;100027.34;4410056;32;32668;-87
2023/08/18 09:10:28;;;;;;;2.20;0.77;;;;;;;30.23;47.40;100029.25;4412682;32;34510;-86
2023/08/18 09:12:56;;;;;;;2.90;1.92;;;;;;;30.27;48.52;100019.69;4422385;32;33663;-87
2023/08/18 09:15:24;;;;;;;0.65;0.62;;;;;;;30.19;47.62;100027.94;4413030;32;31853;-87
2023/08/18 09:17:52;;;;;;;2.42;1.33;;;;;;;30.15;48.72;100023.94;4400926;32;34050;-86
2023/08/18 09:20:21;;;;;;;2.25;2.05;;;;;;;30.47;47.36;100017.19;4423419;32;33591;-87
2023/08/18 09:22:56;;;;;;;1.30;1.20;;;;;;;30.58;46.44;100019.44;4422818;32;32318;-87
2023/08/18 09:25:24;;;;;;;1.40;1.15;;;;;;;30.48;45.50;100009.87;4423548;32;32473;-87
2023/08/18 09:27:56;;;;;;;1.67;1.52;;;;;;;30.46;46.77;100006.50;4424710;32;34766;-86
2023/08/18 09:30:24;;;;;;;4.72;2.67;;;;;;;30.57;47.88;100008.72;4428034;32;35100;-86
2023/08/18 09:32:52;;;;;;;1.55;1.45;;;;;;;30.82;46.54;100001.94;4415893;32;32358;-86
2023/08/18 09:35:20;;;;;;;3.33;1.50;;;;;;;31.02;46.00;100006.75;4429463;32;31989;-87
2023/08/18 09:37:55;;;;;;;2.08;0.82;;;;;;;30.55;46.94;100008.94;4429451;32;33065;-86
2023/08/18 09:40:23;;;;;;;1.98;1.85;;;;;;;30.48;47.03;100016.19;4442385;32;33965;-87
2023/08/18 09:42:51;;;;;;;1.73;1.62;;;;;;;30.65;47.11;100010.50;4413840;32;31982;-87
2023/08/18 09:45:22;;;;;;;2.60;1.65;;;;;;;30.04;47.70;100018.91;4421366;32;32800;-86
2023/08/18 09:47:54;;;;;;;2.58;2.37;;;;;;;29.97;47.69;100021.53;4429490;32;33466;-86
2023/08/18 09:50:25;;;;;;;1.73;1.62;;;;;;;29.75;50.06;100019.72;4414088;32;34177;-86
2023/08/18 09:52:55;;;;;;;1.90;1.75;;;;;;;30.19;48.14;100018.94;4411629;32;32904;-86
2023/08/18 09:55:34;;;;;;;1.60;1.50;;;;;;;30.00;48.65;100009.41;4404086;32;32082;-86
2023/08/18 09:58:35;;;;;;;3.37;2.37;;;;;;;29.93;49.30;100013.94;4433313;32;36357;-86
2023/08/18 10:01:06;;;;;;;2.70;2.00;;;;;;;30.38;46.91;100009.31;4424655;32;33970;-86
2023/08/18 10:03:40;;;;;;;9.77;3.40;;;;;;;30.24;48.35;100014.63;4409025;32;33702;-86
2023/08/18 10:06:08;;;;;;;3.00;1.77;;;;;;;30.49;47.64;100008.84;4426888;32;33404;-86
2023/08/18 10:08:36;;;;;;;3.62;2.33;;;;;;;30.41;47.05;100009.81;4418167;32;33934;-87
2023/08/18 10:11:03;;;;;;;2.62;2.42;;;;;;;30.47;47.20;100000.84;4412911;32;33024;-86
2023/08/18 10:13:33;;;;;;;1.77;1.20;;;;;;;30.29;48.18;100011.31;4419692;32;34167;-86
2023/08/18 10:16:02;;;;;;;2.87;2.55;;;;;;;30.61;47.63;100005.41;4433324;32;33170;-86
2023/08/18 10:18:31;;;;;;;2.17;2.00;;;;;;;30.61;47.64;99993.69;4414844;32;33253;-87
2023/08/18 10:20:59;;;;;;;2.08;1.90;;;;;;;30.54;46.95;99992.78;4401345;32;33277;-90
2023/08/18 10:23:31;;;;;;;2.15;1.83;;;;;;;30.60;47.11;99994.72;4430347;32;33109;-88
2023/08/18 10:26:03;;;;;;;2.28;2.17;;;;;;;30.30;47.86;99997.50;4404925;32;34636;-87
2023/08/18 10:28:34;;;;;;;2.28;2.15;;;;;;;30.92;48.25;99989.88;4426469;32;34551;-88
2023/08/18 10:31:10;;;;;;;2.20;1.47;;;;;;;31.56;45.75;99984.34;4425384;32;33903;-87
2023/08/18 10:33:42;;;;;;;1.10;1.08;;;;;;;31.26;44.60;99986.41;4414258;32;33116;-88
2023/08/18 10:36:14;;;;;;;0.88;0.55;;;;;;;31.47;46.18;99988.28;4424724;32;33078;-88
2023/08/18 10:38:42;;;;;;;1.48;1.37;;;;;;;31.40;46.51;99992.84;4428698;32;34282;-88
2023/08/18 10:41:11;;;;;;;2.12;1.92;;;;;;;31.53;44.93;99991.06;4415761;32;33029;-87
2023/08/18 10:43:45;;;;;;;1.67;1.58;;;;;;;31.66;44.68;99984.84;4414419;32;32992;-88
2023/08/18 10:46:13;;;;;;;2.45;1.65;;;;;;;32.20;43.80;99983.31;4428113;32;33538;-87
2023/08/18 10:48:41;;;;;;;1.52;1.33;;;;;;;32.67;42.19;99974.28;4416335;32;33490;-87
2023/08/18 10:51:09;;;;;;;3.50;1.30;;;;;;;32.38;43.43;99978.19;4403678;32;32361;-86
2023/08/18 10:53:39;;;;;;;1.92;1.45;;;;;;;32.07;44.37;99979.47;4424061;32;33453;-87
2023/08/18 10:56:06;;;;;;;4.55;2.33;;;;;;;32.35;43.12;99976.66;4422886;32;34134;-87
2023/08/18 10:58:36;;;;;;;2.28;1.70;;;;;;;32.02;44.64;99981.97;4412709;32;33231;-87
2023/08/18 11:01:08;;;;;;;1.58;1.48;;;;;;;32.22;43.38;99973.84;4428873;32;33234;-87
2023/08/18 11:03:36;;;;;;;3.00;2.22;;;;;;;31.62;43.58;99967.22;4412506;32;32489;-87
2023/08/18 11:06:04;;;;;;;2.30;1.17;;;;;;;31.85;43.22;99969.66;4430668;32;32646;-87
2023/08/18 11:08:32;;;;;;;1.45;1.33;;;;;;;31.89;43.12;99970.13;4416250;32;34629;-86
2023/08/18 11:11:00;;;;;;;2.42;1.15;;;;;;;31.95;40.96;99969.31;4403243;32;32988;-87
2023/08/18 11:13:31;;;;;;;1.60;1.48;;;;;;;31.93;41.77;99971.41;4410903;32;32685;-87
2023/08/18 11:15:59;;;;;;;1.83;1.52;;;;;;;31.61;41.74;99966.34;4400241;32;32487;-87
2023/08/18 11:18:26;;;;;;;2.47;1.23;;;;;;;31.84;41.88;99974.28;4413888;32;32705;-86
2023/08/18 11:20:57;;;;;;;9.05;2.05;;;;;;;31.72;41.64;99978.59;4417682;32;34118;-87
2023/08/18 11:23:25;;;;;;;1.40;1.30;;;;;;;31.70;42.16;99972.47;4415193;32;33536;-86
2023/08/18 11:25:54;;;;;;;3.05;2.17;;;;;;;32.23;41.79;99967.34;4415050;32;32994;-87
2023/08/18 11:28:22;;;;;;;1.30;1.20;;;;;;;32.25;41.95;99965.25;4413782;32;33687;-87
2023/08/18 11:30:53;;;;;;;1.85;1.55;;;;;;;31.66;42.39;99973.09;4427418;32;34745;-89
2023/08/18 11:33:23;;;;;;;6.82;2.05;;;;;;;31.30;43.59;99966.75;4422623;32;33968;-89
2023/08/18 11:35:52;;;;;;;1.80;1.67;;;;;;;31.58;42.90;99968.63;4428633;32;33701;-89
2023/08/18 11:38:19;;;;;;;1.65;1.55;;;;;;;31.48;44.25;99962.69;4411834;32;34618;-89
2023/08/18 11:40:48;;;;;;;10.95;1.70;;;;;;;31.60;43.48;99969.28;4424722;32;33868;-89